createdAt,value
2018-12-07T00:00:08.990Z,11.87
2018-12-07T00:05:12.458Z,11.82
2018-12-07T00:10:15.849Z,11.75
2018-12-07T00:15:19.243Z,11.83
2018-12-07T00:20:22.842Z,11.86
2018-12-07T00:25:45.835Z,11.82
2018-12-07T00:30:49.246Z,11.91
2018-12-07T00:35:52.656Z,11.90
2018-12-07T00:40:56.061Z,11.91
2018-12-07T00:45:59.465Z,11.76
2018-12-07T00:51:02.904Z,11.87
2018-12-07T00:56:06.281Z,11.72
2018-12-07T01:01:09.688Z,11.67
2018-12-07T01:06:13.099Z,11.63
2018-12-07T01:11:24.132Z,11.63
2018-12-07T01:16:27.494Z,11.58
2018-12-07T01:21:30.908Z,11.58
2018-12-07T01:26:34.293Z,11.50
2018-12-07T01:31:37.672Z,11.54
2018-12-07T01:36:41.033Z,11.51
2018-12-07T01:41:44.432Z,11.46
2018-12-07T01:46:47.980Z,11.52
2018-12-07T01:51:51.372Z,11.45
2018-12-07T01:56:54.745Z,11.41
2018-12-07T02:01:58.192Z,11.41
2018-12-07T02:07:01.550Z,11.42
2018-12-07T02:12:05.155Z,11.42
2018-12-07T02:17:08.595Z,11.44
2018-12-07T02:22:11.911Z,11.43
2018-12-07T02:27:15.309Z,11.44
2018-12-07T02:37:27.429Z,11.50
2018-12-07T02:42:30.813Z,11.45
2018-12-07T02:47:34.191Z,11.48
2018-12-07T02:52:37.749Z,11.45
2018-12-07T02:57:41.102Z,11.41
2018-12-07T03:02:44.633Z,11.38
2018-12-07T03:07:48.004Z,11.33
2018-12-07T03:12:51.384Z,11.30
2018-12-07T03:17:54.895Z,11.33
2018-12-07T03:22:58.292Z,11.36
2018-12-07T03:28:01.644Z,11.31
2018-12-07T03:33:05.358Z,11.28
2018-12-07T03:38:08.705Z,11.29
2018-12-07T03:43:12.074Z,11.27
2018-12-07T03:48:15.497Z,11.31
2018-12-07T03:53:18.928Z,11.31
2018-12-07T03:58:22.331Z,11.23
2018-12-07T04:03:25.740Z,11.26
2018-12-07T04:08:29.106Z,11.25
2018-12-07T04:13:32.515Z,11.31
2018-12-07T04:18:35.875Z,11.27
2018-12-07T04:23:39.243Z,11.29
2018-12-07T04:28:42.594Z,11.31
2018-12-07T04:33:46.026Z,11.30
2018-12-07T04:38:49.433Z,11.33
2018-12-07T04:43:53.041Z,11.33
2018-12-07T04:48:56.742Z,11.33
2018-12-07T04:54:00.098Z,11.37
2018-12-07T05:04:12.815Z,11.36
2018-12-07T05:09:16.239Z,11.33
2018-12-07T05:14:19.770Z,11.33
2018-12-07T05:19:23.131Z,11.37
2018-12-07T05:24:26.483Z,11.33
2018-12-07T05:29:29.837Z,11.38
2018-12-07T05:34:33.228Z,11.39
2018-12-07T05:39:36.636Z,11.32
2018-12-07T05:44:40.032Z,11.37
2018-12-07T05:49:43.450Z,11.33
2018-12-07T05:54:46.958Z,11.36
2018-12-07T05:59:50.366Z,11.37
2018-12-07T06:04:53.834Z,11.36
2018-12-07T06:10:16.889Z,11.27
2018-12-07T06:15:32.216Z,11.26
2018-12-07T06:20:35.584Z,11.36
2018-12-07T06:25:38.969Z,11.38
2018-12-07T06:30:42.353Z,11.45
2018-12-07T06:35:45.724Z,11.53
2018-12-07T06:40:49.413Z,11.53
2018-12-07T06:45:52.720Z,11.50
2018-12-07T06:50:56.135Z,11.59
2018-12-07T06:55:59.621Z,11.67
2018-12-07T07:01:03.107Z,11.75
2018-12-07T07:06:06.544Z,11.71
2018-12-07T07:11:09.964Z,11.73
2018-12-07T07:16:13.505Z,11.78
2018-12-07T07:21:16.873Z,11.85
2018-12-07T07:26:20.304Z,11.81
2018-12-07T07:31:23.704Z,11.76
2018-12-07T07:36:27.106Z,11.60
2018-12-07T07:41:30.891Z,11.62
2018-12-07T07:46:34.312Z,11.56
2018-12-07T07:51:37.905Z,11.63
2018-12-07T07:56:41.309Z,11.46
2018-12-07T08:01:44.705Z,11.48
2018-12-07T08:06:48.075Z,11.66
2018-12-07T08:11:51.656Z,11.55
2018-12-07T08:16:55.121Z,11.67
2018-12-07T08:21:58.488Z,11.62
2018-12-07T08:27:01.844Z,11.69
2018-12-07T08:32:05.269Z,11.78
2018-12-07T08:37:08.669Z,11.72
2018-12-07T08:42:12.235Z,11.68
2018-12-07T08:47:15.606Z,11.72
2018-12-07T08:52:18.980Z,11.71
2018-12-07T08:57:22.388Z,11.70
2018-12-07T09:02:26.164Z,11.70
2018-12-07T09:07:29.567Z,11.62
2018-12-07T09:12:32.940Z,11.74
2018-12-07T09:22:45.575Z,11.64
2018-12-07T09:27:48.967Z,11.74
2018-12-07T09:32:52.373Z,11.69
2018-12-07T09:37:55.891Z,11.79
2018-12-07T09:42:59.280Z,11.79
2018-12-07T09:48:02.734Z,11.76
2018-12-07T09:53:06.252Z,11.83
2018-12-07T09:58:09.926Z,11.87
2018-12-07T10:03:13.308Z,11.91
2018-12-07T10:08:16.688Z,12.01
2018-12-07T10:13:20.102Z,11.99
2018-12-07T10:18:23.396Z,11.98
2018-12-07T10:23:26.726Z,11.96
2018-12-07T10:28:30.110Z,12.02
2018-12-07T10:33:33.624Z,12.00
2018-12-07T10:38:36.969Z,11.97
2018-12-07T10:43:40.349Z,12.02
2018-12-07T10:49:02.758Z,12.03
2018-12-07T10:54:06.186Z,12.05
2018-12-07T10:59:09.532Z,12.16
2018-12-07T11:04:31.966Z,12.20
2018-12-07T11:09:54.444Z,12.19
2018-12-07T11:15:16.883Z,12.17
2018-12-07T11:20:39.317Z,12.22
2018-12-07T11:26:01.814Z,12.34
2018-12-07T11:31:24.299Z,12.38
2018-12-07T11:36:27.750Z,12.43
2018-12-07T11:41:31.164Z,12.40
2018-12-07T11:46:34.541Z,12.40
2018-12-07T11:51:37.922Z,12.46
2018-12-07T11:56:41.305Z,12.48
2018-12-07T12:01:45.149Z,12.47
2018-12-07T12:06:48.108Z,12.49
2018-12-07T12:11:51.535Z,12.44
2018-12-07T12:16:54.911Z,12.40
2018-12-07T12:21:58.308Z,12.39
2018-12-07T12:27:01.880Z,12.44
2018-12-07T12:32:05.379Z,12.39
2018-12-07T12:37:08.835Z,12.38
2018-12-07T12:42:12.239Z,12.47
2018-12-07T12:47:15.655Z,12.56
2018-12-07T12:52:19.005Z,12.55
2018-12-07T12:57:22.392Z,12.58
2018-12-07T13:02:25.714Z,12.68
2018-12-07T13:07:29.069Z,12.69
2018-12-07T13:12:32.511Z,12.82
2018-12-07T13:17:35.860Z,12.69
2018-12-07T13:22:40.158Z,12.64
2018-12-07T13:27:44.120Z,12.76
2018-12-07T13:32:47.558Z,12.57
2018-12-07T13:37:51.010Z,12.59
2018-12-07T13:42:54.485Z,12.57
2018-12-07T13:47:57.884Z,12.71
2018-12-07T13:53:01.505Z,12.58
2018-12-07T13:58:04.978Z,12.71
2018-12-07T14:03:08.252Z,12.75
2018-12-07T14:08:31.735Z,12.54
2018-12-07T14:13:36.027Z,12.59
2018-12-07T14:29:34.250Z,12.55
2018-12-07T14:34:38.636Z,12.56
2018-12-07T14:39:43.563Z,12.62
2018-12-07T14:44:48.326Z,12.40
2018-12-07T14:49:54.935Z,12.40
2018-12-07T14:54:59.504Z,12.40
2018-12-07T15:00:06.873Z,12.29
2018-12-07T15:10:40.913Z,12.15
2018-12-07T15:15:45.867Z,12.17
2018-12-07T15:20:50.533Z,12.13
2018-12-07T15:26:14.102Z,12.05
2018-12-07T15:31:37.456Z,12.05
2018-12-07T15:36:41.618Z,12.02
2018-12-07T15:46:56.032Z,12.13
2018-12-07T15:52:19.874Z,12.09
2018-12-07T15:57:23.856Z,12.19
2018-12-07T16:02:28.518Z,12.26
2018-12-07T16:07:32.638Z,12.16
2018-12-07T16:12:36.743Z,12.09
2018-12-07T16:23:04.284Z,12.19
2018-12-07T16:28:09.189Z,12.22
2018-12-07T16:33:14.234Z,12.09
2018-12-07T16:38:37.623Z,11.95
2018-12-07T16:43:43.931Z,11.77
2018-12-07T16:49:05.416Z,11.78
2018-12-07T16:54:09.829Z,11.72
2018-12-07T16:59:14.283Z,11.46
2018-12-07T17:04:19.375Z,11.42
2018-12-07T17:09:24.109Z,11.24
2018-12-07T17:14:31.640Z,11.31
2018-12-07T17:19:35.834Z,11.21
2018-12-07T17:29:49.740Z,10.95
2018-12-07T17:34:52.939Z,10.98
2018-12-07T17:45:06.136Z,11.01
2018-12-07T17:50:09.639Z,10.99
2018-12-07T18:00:41.795Z,10.91
2018-12-07T18:05:45.271Z,10.96
2018-12-07T18:10:48.807Z,10.97
2018-12-07T18:15:51.964Z,10.92
2018-12-07T18:20:55.549Z,10.82
2018-12-07T18:25:58.877Z,10.90
2018-12-07T18:31:02.232Z,10.94
2018-12-07T18:36:05.763Z,10.92
2018-12-07T18:41:09.277Z,11.03
2018-12-07T18:46:12.480Z,10.96
2018-12-07T18:51:15.920Z,10.95
2018-12-07T18:56:19.682Z,10.86
2018-12-07T19:01:23.102Z,10.55
2018-12-07T19:06:26.691Z,10.09
2018-12-07T19:11:29.866Z,9.71
2018-12-07T19:16:33.437Z,9.42
2018-12-07T19:21:36.924Z,8.98
2018-12-07T19:26:40.278Z,8.70
2018-12-07T19:31:43.711Z,8.51
2018-12-07T19:36:47.299Z,8.35
2018-12-07T19:41:50.629Z,8.13
2018-12-07T19:46:54.078Z,8.01
2018-12-07T19:51:57.908Z,8.04
2018-12-07T19:57:02.425Z,8.00
2018-12-07T20:02:27.979Z,8.01
2018-12-07T20:07:31.588Z,8.00
2018-12-07T20:12:34.778Z,8.00
2018-12-07T20:17:38.227Z,7.99
2018-12-07T20:22:42.143Z,7.95
2018-12-07T20:27:45.407Z,7.97
2018-12-07T20:32:48.768Z,7.88
2018-12-07T20:37:52.968Z,7.92
2018-12-07T20:42:56.521Z,7.82
2018-12-07T20:47:59.880Z,7.89
2018-12-07T20:53:03.500Z,7.91
2018-12-07T20:58:07.150Z,7.86
2018-12-07T21:03:10.843Z,7.90
2018-12-07T21:09:01.520Z,7.87
2018-12-07T21:14:43.818Z,7.84
2018-12-07T21:20:26.197Z,7.95
2018-12-07T21:25:29.736Z,7.61
2018-12-07T21:30:57.946Z,7.23
2018-12-07T21:37:00.822Z,7.09
2018-12-07T21:42:18.301Z,6.88
2018-12-07T21:48:11.491Z,6.86
2018-12-07T21:53:15.411Z,6.93
2018-12-07T21:58:18.393Z,7.17
2018-12-07T22:03:21.875Z,7.30
2018-12-07T22:08:25.109Z,7.35
2018-12-07T22:13:28.499Z,7.31
2018-12-07T22:18:32.287Z,7.34
2018-12-07T22:23:54.805Z,7.27
2018-12-07T22:28:58.026Z,7.27
2018-12-07T22:34:01.402Z,7.24
2018-12-07T22:39:07.899Z,7.29
2018-12-07T22:44:11.228Z,7.18
2018-12-07T22:49:14.679Z,6.99
2018-12-07T22:59:28.243Z,7.08
2018-12-07T23:04:31.582Z,7.08
2018-12-07T23:09:34.969Z,7.08
2018-12-07T23:14:38.298Z,7.17
2018-12-07T23:19:41.678Z,7.21
2018-12-07T23:24:45.060Z,7.23
2018-12-07T23:29:48.431Z,7.08
2018-12-07T23:34:51.822Z,6.97
2018-12-07T23:39:55.160Z,6.93
2018-12-07T23:44:58.614Z,6.80
2018-12-07T23:50:02.008Z,6.74
2018-12-07T23:55:05.377Z,6.77
